sensor_id;sensor_type;location;lat;lon;timestamp;P1;durP1;ratioP1;P2;durP2;ratioP2
52542;SDS011;38449;52.696;6.186;2023-09-07T00:01:19;5.47;;;4.65;;
52542;SDS011;38449;52.696;6.186;2023-09-07T00:03:52;5.90;;;4.20;;
52542;SDS011;38449;52.696;6.186;2023-09-07T00:06:45;5.05;;;4.15;;
52542;SDS011;38449;52.696;6.186;2023-09-07T00:09:18;5.15;;;4.30;;
52542;SDS011;38449;52.696;6.186;2023-09-07T00:12:11;5.80;;;4.30;;
52542;SDS011;38449;52.696;6.186;2023-09-07T00:14:44;5.80;;;4.38;;
52542;SDS011;38449;52.696;6.186;2023-09-07T00:17:37;4.82;;;3.92;;
52542;SDS011;38449;52.696;6.186;2023-09-07T00:20:10;5.53;;;4.03;;
52542;SDS011;38449;52.696;6.186;2023-09-07T00:23:04;5.80;;;4.40;;
52542;SDS011;38449;52.696;6.186;2023-09-07T00:25:38;8.55;;;4.60;;
52542;SDS011;38449;52.696;6.186;2023-09-07T00:28:31;7.15;;;4.40;;
52542;SDS011;38449;52.696;6.186;2023-09-07T00:31:04;5.32;;;4.82;;
52542;SDS011;38449;52.696;6.186;2023-09-07T00:33:57;6.25;;;4.35;;
52542;SDS011;38449;52.696;6.186;2023-09-07T00:36:30;6.65;;;4.53;;
52542;SDS011;38449;52.696;6.186;2023-09-07T00:39:23;5.50;;;4.88;;
52542;SDS011;38449;52.696;6.186;2023-09-07T00:41:56;5.80;;;4.20;;
52542;SDS011;38449;52.696;6.186;2023-09-07T00:44:49;6.32;;;4.70;;
52542;SDS011;38449;52.696;6.186;2023-09-07T00:47:22;5.45;;;4.25;;
52542;SDS011;38449;52.696;6.186;2023-09-07T00:50:15;7.43;;;4.50;;
52542;SDS011;38449;52.696;6.186;2023-09-07T00:52:48;6.97;;;5.07;;
52542;SDS011;38449;52.696;6.186;2023-09-07T00:55:41;7.32;;;4.90;;
52542;SDS011;38449;52.696;6.186;2023-09-07T00:58:14;5.95;;;4.93;;
52542;SDS011;38449;52.696;6.186;2023-09-07T01:01:08;7.00;;;4.57;;
52542;SDS011;38449;52.696;6.186;2023-09-07T01:03:41;7.05;;;5.55;;
52542;SDS011;38449;52.696;6.186;2023-09-07T01:06:39;6.65;;;4.70;;
52542;SDS011;38449;52.696;6.186;2023-09-07T01:09:19;7.38;;;4.90;;
52542;SDS011;38449;52.696;6.186;2023-09-07T01:12:14;5.30;;;4.72;;
52542;SDS011;38449;52.696;6.186;2023-09-07T01:14:47;6.28;;;4.63;;
52542;SDS011;38449;52.696;6.186;2023-09-07T01:17:40;6.55;;;4.85;;
52542;SDS011;38449;52.696;6.186;2023-09-07T01:20:14;6.28;;;5.38;;
52542;SDS011;38449;52.696;6.186;2023-09-07T01:23:08;5.57;;;5.07;;
52542;SDS011;38449;52.696;6.186;2023-09-07T01:25:42;6.30;;;4.90;;
52542;SDS011;38449;52.696;6.186;2023-09-07T01:28:36;6.45;;;4.60;;
52542;SDS011;38449;52.696;6.186;2023-09-07T01:31:09;7.95;;;5.20;;
52542;SDS011;38449;52.696;6.186;2023-09-07T01:34:02;6.38;;;4.90;;
52542;SDS011;38449;52.696;6.186;2023-09-07T01:36:36;5.75;;;4.82;;
52542;SDS011;38449;52.696;6.186;2023-09-07T01:39:29;7.05;;;5.03;;
52542;SDS011;38449;52.696;6.186;2023-09-07T01:42:02;5.53;;;4.90;;
52542;SDS011;38449;52.696;6.186;2023-09-07T01:44:55;7.50;;;4.82;;
52542;SDS011;38449;52.696;6.186;2023-09-07T01:47:28;6.07;;;4.70;;
52542;SDS011;38449;52.696;6.186;2023-09-07T01:50:21;6.53;;;4.85;;
52542;SDS011;38449;52.696;6.186;2023-09-07T01:52:54;6.45;;;5.10;;
52542;SDS011;38449;52.696;6.186;2023-09-07T01:55:49;6.65;;;5.18;;
52542;SDS011;38449;52.696;6.186;2023-09-07T01:58:25;7.32;;;5.25;;
52542;SDS011;38449;52.696;6.186;2023-09-07T02:01:25;6.30;;;4.75;;
52542;SDS011;38449;52.696;6.186;2023-09-07T02:03:59;5.43;;;4.65;;
52542;SDS011;38449;52.696;6.186;2023-09-07T02:06:53;6.68;;;5.35;;
52542;SDS011;38449;52.696;6.186;2023-09-07T02:09:25;7.20;;;5.30;;
52542;SDS011;38449;52.696;6.186;2023-09-07T02:12:19;6.60;;;5.03;;
52542;SDS011;38449;52.696;6.186;2023-09-07T02:14:51;6.88;;;5.05;;
52542;SDS011;38449;52.696;6.186;2023-09-07T02:17:45;6.43;;;4.90;;
52542;SDS011;38449;52.696;6.186;2023-09-07T02:20:17;7.45;;;5.75;;
52542;SDS011;38449;52.696;6.186;2023-09-07T02:23:11;6.18;;;4.93;;
52542;SDS011;38449;52.696;6.186;2023-09-07T02:25:43;6.97;;;5.30;;
52542;SDS011;38449;52.696;6.186;2023-09-07T02:28:37;8.02;;;4.88;;
52542;SDS011;38449;52.696;6.186;2023-09-07T02:31:09;6.00;;;5.10;;
52542;SDS011;38449;52.696;6.186;2023-09-07T02:34:03;5.75;;;4.88;;
52542;SDS011;38449;52.696;6.186;2023-09-07T02:36:35;7.75;;;5.25;;
52542;SDS011;38449;52.696;6.186;2023-09-07T02:39:29;6.45;;;5.20;;
52542;SDS011;38449;52.696;6.186;2023-09-07T02:42:01;9.10;;;5.40;;
52542;SDS011;38449;52.696;6.186;2023-09-07T02:44:55;7.38;;;5.43;;
52542;SDS011;38449;52.696;6.186;2023-09-07T02:47:27;6.53;;;5.60;;
52542;SDS011;38449;52.696;6.186;2023-09-07T02:50:21;6.45;;;5.40;;
52542;SDS011;38449;52.696;6.186;2023-09-07T02:52:54;7.68;;;5.53;;
52542;SDS011;38449;52.696;6.186;2023-09-07T02:55:50;7.55;;;5.68;;
52542;SDS011;38449;52.696;6.186;2023-09-07T02:58:22;6.60;;;5.45;;
52542;SDS011;38449;52.696;6.186;2023-09-07T03:01:16;6.38;;;5.45;;
52542;SDS011;38449;52.696;6.186;2023-09-07T03:03:52;6.43;;;5.78;;
52542;SDS011;38449;52.696;6.186;2023-09-07T03:06:46;6.68;;;5.47;;
52542;SDS011;38449;52.696;6.186;2023-09-07T03:09:18;7.60;;;5.50;;
52542;SDS011;38449;52.696;6.186;2023-09-07T03:12:12;9.18;;;5.85;;
52542;SDS011;38449;52.696;6.186;2023-09-07T03:14:44;6.47;;;5.72;;
52542;SDS011;38449;52.696;6.186;2023-09-07T03:17:38;6.38;;;5.45;;
52542;SDS011;38449;52.696;6.186;2023-09-07T03:20:10;6.32;;;5.72;;
52542;SDS011;38449;52.696;6.186;2023-09-07T03:23:04;6.22;;;5.63;;
52542;SDS011;38449;52.696;6.186;2023-09-07T03:25:37;7.97;;;6.13;;
52542;SDS011;38449;52.696;6.186;2023-09-07T03:28:31;8.38;;;5.65;;
52542;SDS011;38449;52.696;6.186;2023-09-07T03:31:03;7.10;;;5.70;;
52542;SDS011;38449;52.696;6.186;2023-09-07T03:33:57;8.80;;;5.53;;
52542;SDS011;38449;52.696;6.186;2023-09-07T03:36:29;7.13;;;6.30;;
52542;SDS011;38449;52.696;6.186;2023-09-07T03:39:23;6.45;;;5.70;;
52542;SDS011;38449;52.696;6.186;2023-09-07T03:42:16;9.52;;;6.03;;
52542;SDS011;38449;52.696;6.186;2023-09-07T03:44:48;7.85;;;5.72;;
52542;SDS011;38449;52.696;6.186;2023-09-07T03:47:42;6.97;;;5.93;;
52542;SDS011;38449;52.696;6.186;2023-09-07T03:50:35;7.60;;;5.75;;
52542;SDS011;38449;52.696;6.186;2023-09-07T03:53:07;8.75;;;5.72;;
52542;SDS011;38449;52.696;6.186;2023-09-07T03:56:01;9.02;;;5.57;;
52542;SDS011;38449;52.696;6.186;2023-09-07T03:58:35;9.40;;;5.55;;
52542;SDS011;38449;52.696;6.186;2023-09-07T04:01:29;8.10;;;6.07;;
52542;SDS011;38449;52.696;6.186;2023-09-07T04:04:01;8.35;;;6.18;;
52542;SDS011;38449;52.696;6.186;2023-09-07T04:06:55;10.27;;;5.53;;
52542;SDS011;38449;52.696;6.186;2023-09-07T04:09:27;7.28;;;6.05;;
52542;SDS011;38449;52.696;6.186;2023-09-07T04:12:21;8.82;;;6.10;;
52542;SDS011;38449;52.696;6.186;2023-09-07T04:14:53;7.47;;;6.22;;
52542;SDS011;38449;52.696;6.186;2023-09-07T04:17:47;7.70;;;6.20;;
52542;SDS011;38449;52.696;6.186;2023-09-07T04:20:19;7.05;;;6.35;;
52542;SDS011;38449;52.696;6.186;2023-09-07T04:23:15;8.23;;;5.93;;
52542;SDS011;38449;52.696;6.186;2023-09-07T04:25:47;7.28;;;6.07;;
52542;SDS011;38449;52.696;6.186;2023-09-07T04:28:41;9.38;;;6.30;;
52542;SDS011;38449;52.696;6.186;2023-09-07T04:31:13;6.95;;;5.95;;
52542;SDS011;38449;52.696;6.186;2023-09-07T04:34:07;6.75;;;6.05;;
52542;SDS011;38449;52.696;6.186;2023-09-07T04:36:39;7.28;;;6.32;;
52542;SDS011;38449;52.696;6.186;2023-09-07T04:39:33;8.15;;;6.72;;
52542;SDS011;38449;52.696;6.186;2023-09-07T04:42:05;7.47;;;6.65;;
52542;SDS011;38449;52.696;6.186;2023-09-07T04:44:59;8.15;;;6.10;;
52542;SDS011;38449;52.696;6.186;2023-09-07T04:47:31;8.07;;;6.38;;
52542;SDS011;38449;52.696;6.186;2023-09-07T04:50:25;7.57;;;6.30;;
52542;SDS011;38449;52.696;6.186;2023-09-07T04:52:57;8.15;;;6.40;;
52542;SDS011;38449;52.696;6.186;2023-09-07T04:55:51;9.40;;;6.68;;
52542;SDS011;38449;52.696;6.186;2023-09-07T04:58:24;9.52;;;7.15;;
52542;SDS011;38449;52.696;6.186;2023-09-07T05:01:17;8.38;;;6.90;;
52542;SDS011;38449;52.696;6.186;2023-09-07T05:03:49;8.23;;;6.50;;
52542;SDS011;38449;52.696;6.186;2023-09-07T05:06:43;9.48;;;6.28;;
52542;SDS011;38449;52.696;6.186;2023-09-07T05:09:16;8.10;;;6.63;;
52542;SDS011;38449;52.696;6.186;2023-09-07T05:12:10;9.82;;;6.82;;
52542;SDS011;38449;52.696;6.186;2023-09-07T05:14:42;9.02;;;7.13;;
52542;SDS011;38449;52.696;6.186;2023-09-07T05:17:36;9.38;;;7.10;;
52542;SDS011;38449;52.696;6.186;2023-09-07T05:20:10;8.23;;;7.07;;
52542;SDS011;38449;52.696;6.186;2023-09-07T05:23:03;9.02;;;6.75;;
52542;SDS011;38449;52.696;6.186;2023-09-07T05:25:42;11.00;;;7.10;;
52542;SDS011;38449;52.696;6.186;2023-09-07T05:28:39;9.05;;;7.47;;
52542;SDS011;38449;52.696;6.186;2023-09-07T05:31:14;7.47;;;6.63;;
52542;SDS011;38449;52.696;6.186;2023-09-07T05:34:07;8.82;;;7.20;;
52542;SDS011;38449;52.696;6.186;2023-09-07T05:36:40;8.75;;;6.95;;
52542;SDS011;38449;52.696;6.186;2023-09-07T05:39:33;10.25;;;6.72;;
52542;SDS011;38449;52.696;6.186;2023-09-07T05:42:06;10.65;;;7.50;;
52542;SDS011;38449;52.696;6.186;2023-09-07T05:44:59;8.70;;;6.95;;
52542;SDS011;38449;52.696;6.186;2023-09-07T05:47:32;8.85;;;6.78;;
52542;SDS011;38449;52.696;6.186;2023-09-07T05:50:28;7.90;;;7.10;;
52542;SDS011;38449;52.696;6.186;2023-09-07T05:53:21;10.27;;;7.63;;
52542;SDS011;38449;52.696;6.186;2023-09-07T05:55:54;10.20;;;6.88;;
52542;SDS011;38449;52.696;6.186;2023-09-07T05:58:47;8.48;;;7.18;;
52542;SDS011;38449;52.696;6.186;2023-09-07T06:01:20;8.45;;;7.43;;
52542;SDS011;38449;52.696;6.186;2023-09-07T06:04:13;10.38;;;7.35;;
52542;SDS011;38449;52.696;6.186;2023-09-07T06:06:46;8.43;;;6.47;;
52542;SDS011;38449;52.696;6.186;2023-09-07T06:09:40;8.30;;;6.53;;
52542;SDS011;38449;52.696;6.186;2023-09-07T06:12:14;9.07;;;7.00;;
52542;SDS011;38449;52.696;6.186;2023-09-07T06:15:07;7.85;;;7.05;;
52542;SDS011;38449;52.696;6.186;2023-09-07T06:17:41;10.15;;;7.05;;
52542;SDS011;38449;52.696;6.186;2023-09-07T06:20:35;8.25;;;6.70;;
52542;SDS011;38449;52.696;6.186;2023-09-07T06:23:08;8.05;;;6.78;;
52542;SDS011;38449;52.696;6.186;2023-09-07T06:26:01;9.35;;;6.90;;
52542;SDS011;38449;52.696;6.186;2023-09-07T06:28:35;8.55;;;7.13;;
52542;SDS011;38449;52.696;6.186;2023-09-07T06:31:28;8.85;;;6.60;;
52542;SDS011;38449;52.696;6.186;2023-09-07T06:34:01;7.57;;;6.80;;
52542;SDS011;38449;52.696;6.186;2023-09-07T06:36:54;8.15;;;7.00;;
52542;SDS011;38449;52.696;6.186;2023-09-07T06:39:27;9.48;;;6.80;;
52542;SDS011;38449;52.696;6.186;2023-09-07T06:42:20;8.02;;;6.35;;
52542;SDS011;38449;52.696;6.186;2023-09-07T06:44:53;8.27;;;6.40;;
52542;SDS011;38449;52.696;6.186;2023-09-07T06:47:48;9.10;;;6.57;;
52542;SDS011;38449;52.696;6.186;2023-09-07T06:50:42;8.70;;;6.32;;
52542;SDS011;38449;52.696;6.186;2023-09-07T06:53:15;8.32;;;6.90;;
52542;SDS011;38449;52.696;6.186;2023-09-07T06:56:08;9.00;;;6.55;;
52542;SDS011;38449;52.696;6.186;2023-09-07T06:58:41;7.80;;;6.72;;
52542;SDS011;38449;52.696;6.186;2023-09-07T07:01:34;7.18;;;6.45;;
52542;SDS011;38449;52.696;6.186;2023-09-07T07:04:08;8.75;;;7.10;;
52542;SDS011;38449;52.696;6.186;2023-09-07T07:07:01;7.78;;;6.63;;
52542;SDS011;38449;52.696;6.186;2023-09-07T07:09:36;9.05;;;7.15;;
52542;SDS011;38449;52.696;6.186;2023-09-07T07:12:29;9.07;;;6.82;;
52542;SDS011;38449;52.696;6.186;2023-09-07T07:15:03;8.90;;;6.55;;
52542;SDS011;38449;52.696;6.186;2023-09-07T07:17:57;8.35;;;6.63;;
52542;SDS011;38449;52.696;6.186;2023-09-07T07:20:30;8.88;;;7.10;;
52542;SDS011;38449;52.696;6.186;2023-09-07T07:23:23;7.70;;;6.55;;
52542;SDS011;38449;52.696;6.186;2023-09-07T07:25:56;7.45;;;6.53;;
52542;SDS011;38449;52.696;6.186;2023-09-07T07:28:49;8.75;;;6.60;;
52542;SDS011;38449;52.696;6.186;2023-09-07T07:31:22;8.88;;;6.20;;
52542;SDS011;38449;52.696;6.186;2023-09-07T07:34:15;8.18;;;5.90;;
52542;SDS011;38449;52.696;6.186;2023-09-07T07:36:48;8.65;;;6.32;;
52542;SDS011;38449;52.696;6.186;2023-09-07T07:39:41;7.78;;;6.97;;
52542;SDS011;38449;52.696;6.186;2023-09-07T07:42:14;9.90;;;6.38;;
52542;SDS011;38449;52.696;6.186;2023-09-07T07:45:07;7.72;;;6.47;;
52542;SDS011;38449;52.696;6.186;2023-09-07T07:47:41;10.68;;;6.85;;
52542;SDS011;38449;52.696;6.186;2023-09-07T07:50:37;9.05;;;6.55;;
52542;SDS011;38449;52.696;6.186;2023-09-07T07:53:30;9.75;;;6.45;;
52542;SDS011;38449;52.696;6.186;2023-09-07T07:56:04;8.40;;;6.30;;
52542;SDS011;38449;52.696;6.186;2023-09-07T07:58:57;8.93;;;6.30;;
52542;SDS011;38449;52.696;6.186;2023-09-07T08:01:30;8.65;;;5.75;;
52542;SDS011;38449;52.696;6.186;2023-09-07T08:04:23;8.88;;;6.93;;
52542;SDS011;38449;52.696;6.186;2023-09-07T08:06:56;10.40;;;6.38;;
52542;SDS011;38449;52.696;6.186;2023-09-07T08:09:49;6.97;;;5.95;;
52542;SDS011;38449;52.696;6.186;2023-09-07T08:12:23;7.65;;;6.32;;
52542;SDS011;38449;52.696;6.186;2023-09-07T08:15:16;7.40;;;6.40;;
52542;SDS011;38449;52.696;6.186;2023-09-07T08:17:52;7.82;;;6.35;;
52542;SDS011;38449;52.696;6.186;2023-09-07T08:20:45;6.93;;;5.82;;
52542;SDS011;38449;52.696;6.186;2023-09-07T08:23:18;10.63;;;6.32;;
52542;SDS011;38449;52.696;6.186;2023-09-07T08:26:11;7.28;;;6.57;;
52542;SDS011;38449;52.696;6.186;2023-09-07T08:28:51;7.35;;;5.80;;
52542;SDS011;38449;52.696;6.186;2023-09-07T08:31:44;8.60;;;6.50;;
52542;SDS011;38449;52.696;6.186;2023-09-07T08:34:17;9.20;;;6.50;;
52542;SDS011;38449;52.696;6.186;2023-09-07T08:37:10;8.23;;;6.53;;
52542;SDS011;38449;52.696;6.186;2023-09-07T08:39:43;8.60;;;6.60;;
52542;SDS011;38449;52.696;6.186;2023-09-07T08:42:36;9.98;;;6.22;;
52542;SDS011;38449;52.696;6.186;2023-09-07T08:45:10;7.55;;;6.60;;
52542;SDS011;38449;52.696;6.186;2023-09-07T08:48:08;10.95;;;7.07;;
52542;SDS011;38449;52.696;6.186;2023-09-07T08:51:10;8.38;;;6.53;;
52542;SDS011;38449;52.696;6.186;2023-09-07T08:54:05;8.20;;;6.72;;
52542;SDS011;38449;52.696;6.186;2023-09-07T08:56:40;8.70;;;7.10;;
52542;SDS011;38449;52.696;6.186;2023-09-07T08:59:33;7.82;;;6.65;;
52542;SDS011;38449;52.696;6.186;2023-09-07T09:02:09;8.50;;;7.60;;
52542;SDS011;38449;52.696;6.186;2023-09-07T09:05:02;7.53;;;6.70;;
52542;SDS011;38449;52.696;6.186;2023-09-07T09:07:37;9.25;;;6.53;;
52542;SDS011;38449;52.696;6.186;2023-09-07T09:10:30;9.30;;;6.75;;
52542;SDS011;38449;52.696;6.186;2023-09-07T09:13:03;12.35;;;7.43;;
52542;SDS011;38449;52.696;6.186;2023-09-07T09:15:58;8.77;;;6.70;;
52542;SDS011;38449;52.696;6.186;2023-09-07T09:18:33;10.60;;;7.00;;
52542;SDS011;38449;52.696;6.186;2023-09-07T09:21:26;9.30;;;6.80;;
52542;SDS011;38449;52.696;6.186;2023-09-07T09:23:59;7.78;;;6.65;;
52542;SDS011;38449;52.696;6.186;2023-09-07T09:26:52;8.50;;;6.95;;
52542;SDS011;38449;52.696;6.186;2023-09-07T09:29:25;8.52;;;6.10;;
52542;SDS011;38449;52.696;6.186;2023-09-07T09:32:19;7.88;;;5.88;;
52542;SDS011;38449;52.696;6.186;2023-09-07T09:34:52;9.73;;;6.80;;
52542;SDS011;38449;52.696;6.186;2023-09-07T09:37:47;9.07;;;6.60;;
52542;SDS011;38449;52.696;6.186;2023-09-07T09:40:23;9.65;;;6.82;;
52542;SDS011;38449;52.696;6.186;2023-09-07T09:43:19;9.52;;;7.00;;
52542;SDS011;38449;52.696;6.186;2023-09-07T09:45:52;7.35;;;6.25;;
52542;SDS011;38449;52.696;6.186;2023-09-07T09:48:45;9.98;;;6.72;;
52542;SDS011;38449;52.696;6.186;2023-09-07T09:51:39;9.40;;;6.25;;
52542;SDS011;38449;52.696;6.186;2023-09-07T09:54:14;8.30;;;7.05;;
52542;SDS011;38449;52.696;6.186;2023-09-07T09:57:09;7.95;;;6.13;;
52542;SDS011;38449;52.696;6.186;2023-09-07T09:59:42;9.80;;;6.55;;
52542;SDS011;38449;52.696;6.186;2023-09-07T10:02:36;8.52;;;6.50;;
52542;SDS011;38449;52.696;6.186;2023-09-07T10:05:11;7.95;;;6.18;;
52542;SDS011;38449;52.696;6.186;2023-09-07T10:08:09;8.60;;;6.30;;
52542;SDS011;38449;52.696;6.186;2023-09-07T10:10:48;9.40;;;7.03;;
52542;SDS011;38449;52.696;6.186;2023-09-07T10:13:44;6.60;;;5.90;;
52542;SDS011;38449;52.696;6.186;2023-09-07T10:16:17;9.70;;;5.50;;
52542;SDS011;38449;52.696;6.186;2023-09-07T10:19:18;7.03;;;6.32;;
52542;SDS011;38449;52.696;6.186;2023-09-07T10:21:55;7.28;;;6.22;;
52542;SDS011;38449;52.696;6.186;2023-09-07T10:24:56;10.30;;;7.32;;
52542;SDS011;38449;52.696;6.186;2023-09-07T10:27:36;7.00;;;5.90;;
52542;SDS011;38449;52.696;6.186;2023-09-07T10:30:29;8.02;;;5.68;;
52542;SDS011;38449;52.696;6.186;2023-09-07T10:33:04;13.40;;;6.32;;
52542;SDS011;38449;52.696;6.186;2023-09-07T10:35:58;7.93;;;6.28;;
52542;SDS011;38449;52.696;6.186;2023-09-07T10:38:32;8.43;;;4.93;;
52542;SDS011;38449;52.696;6.186;2023-09-07T10:41:25;6.25;;;5.60;;
52542;SDS011;38449;52.696;6.186;2023-09-07T10:44:04;7.22;;;6.13;;
52542;SDS011;38449;52.696;6.186;2023-09-07T10:46:51;7.60;;;5.47;;
52542;SDS011;38449;52.696;6.186;2023-09-07T10:49:30;6.20;;;5.28;;
52542;SDS011;38449;52.696;6.186;2023-09-07T10:52:23;7.05;;;5.88;;
52542;SDS011;38449;52.696;6.186;2023-09-07T10:54:56;6.97;;;5.45;;
52542;SDS011;38449;52.696;6.186;2023-09-07T10:57:49;6.53;;;5.82;;
52542;SDS011;38449;52.696;6.186;2023-09-07T11:00:22;7.50;;;5.47;;
52542;SDS011;38449;52.696;6.186;2023-09-07T11:03:15;7.88;;;6.07;;
52542;SDS011;38449;52.696;6.186;2023-09-07T11:05:48;8.68;;;5.80;;
52542;SDS011;38449;52.696;6.186;2023-09-07T11:08:43;8.23;;;6.43;;
52542;SDS011;38449;52.696;6.186;2023-09-07T11:11:16;8.20;;;5.05;;
52542;SDS011;38449;52.696;6.186;2023-09-07T11:14:09;7.13;;;5.57;;
52542;SDS011;38449;52.696;6.186;2023-09-07T11:16:42;7.68;;;5.07;;
52542;SDS011;38449;52.696;6.186;2023-09-07T11:19:35;6.40;;;5.68;;
52542;SDS011;38449;52.696;6.186;2023-09-07T11:22:11;6.25;;;5.47;;
52542;SDS011;38449;52.696;6.186;2023-09-07T11:25:05;7.45;;;5.10;;
52542;SDS011;38449;52.696;6.186;2023-09-07T11:27:39;6.05;;;5.13;;
52542;SDS011;38449;52.696;6.186;2023-09-07T11:30:32;7.38;;;5.35;;
52542;SDS011;38449;52.696;6.186;2023-09-07T11:33:06;7.20;;;5.40;;
52542;SDS011;38449;52.696;6.186;2023-09-07T11:35:59;6.88;;;4.70;;
52542;SDS011;38449;52.696;6.186;2023-09-07T11:38:36;6.93;;;4.70;;
52542;SDS011;38449;52.696;6.186;2023-09-07T11:41:29;6.80;;;4.55;;
52542;SDS011;38449;52.696;6.186;2023-09-07T11:44:02;6.70;;;4.90;;
52542;SDS011;38449;52.696;6.186;2023-09-07T11:46:55;7.70;;;4.85;;
52542;SDS011;38449;52.696;6.186;2023-09-07T11:49:28;7.30;;;4.75;;
52542;SDS011;38449;52.696;6.186;2023-09-07T11:52:21;6.57;;;4.80;;
52542;SDS011;38449;52.696;6.186;2023-09-07T11:54:54;5.25;;;4.75;;
52542;SDS011;38449;52.696;6.186;2023-09-07T11:57:49;6.78;;;4.53;;
52542;SDS011;38449;52.696;6.186;2023-09-07T12:00:23;6.25;;;4.75;;
52542;SDS011;38449;52.696;6.186;2023-09-07T12:03:16;6.15;;;4.32;;
52542;SDS011;38449;52.696;6.186;2023-09-07T12:05:49;6.20;;;4.45;;
52542;SDS011;38449;52.696;6.186;2023-09-07T12:08:42;6.32;;;4.30;;
52542;SDS011;38449;52.696;6.186;2023-09-07T12:11:31;6.32;;;4.30;;
52542;SDS011;38449;52.696;6.186;2023-09-07T12:14:24;6.03;;;4.07;;
52542;SDS011;38449;52.696;6.186;2023-09-07T12:16:57;5.45;;;4.53;;
52542;SDS011;38449;52.696;6.186;2023-09-07T12:19:50;8.57;;;4.78;;
52542;SDS011;38449;52.696;6.186;2023-09-07T12:22:23;5.45;;;4.30;;
52542;SDS011;38449;52.696;6.186;2023-09-07T12:25:17;5.07;;;4.50;;
52542;SDS011;38449;52.696;6.186;2023-09-07T12:27:50;5.65;;;4.50;;
52542;SDS011;38449;52.696;6.186;2023-09-07T12:30:43;6.15;;;4.28;;
52542;SDS011;38449;52.696;6.186;2023-09-07T12:33:16;5.43;;;4.20;;
52542;SDS011;38449;52.696;6.186;2023-09-07T12:36:09;8.48;;;4.50;;
52542;SDS011;38449;52.696;6.186;2023-09-07T12:38:43;7.80;;;4.25;;
52542;SDS011;38449;52.696;6.186;2023-09-07T12:41:36;5.72;;;4.32;;
52542;SDS011;38449;52.696;6.186;2023-09-07T12:44:09;5.13;;;3.92;;
52542;SDS011;38449;52.696;6.186;2023-09-07T12:47:04;7.05;;;4.35;;
52542;SDS011;38449;52.696;6.186;2023-09-07T12:49:37;6.22;;;4.53;;
52542;SDS011;38449;52.696;6.186;2023-09-07T12:52:31;5.15;;;4.65;;
52542;SDS011;38449;52.696;6.186;2023-09-07T12:55:05;5.65;;;4.07;;
52542;SDS011;38449;52.696;6.186;2023-09-07T12:57:58;4.72;;;3.95;;
52542;SDS011;38449;52.696;6.186;2023-09-07T13:00:33;7.32;;;4.72;;
52542;SDS011;38449;52.696;6.186;2023-09-07T13:03:25;6.57;;;4.53;;
52542;SDS011;38449;52.696;6.186;2023-09-07T13:05:58;5.00;;;3.92;;
52542;SDS011;38449;52.696;6.186;2023-09-07T13:08:51;5.90;;;3.85;;
52542;SDS011;38449;52.696;6.186;2023-09-07T13:11:24;5.97;;;4.20;;
52542;SDS011;38449;52.696;6.186;2023-09-07T13:14:18;7.10;;;4.25;;
52542;SDS011;38449;52.696;6.186;2023-09-07T13:16:50;6.82;;;4.13;;
52542;SDS011;38449;52.696;6.186;2023-09-07T13:19:44;5.63;;;4.15;;
52542;SDS011;38449;52.696;6.186;2023-09-07T13:22:17;8.27;;;4.20;;
52542;SDS011;38449;52.696;6.186;2023-09-07T13:25:11;6.70;;;4.63;;
52542;SDS011;38449;52.696;6.186;2023-09-07T13:27:43;4.85;;;3.90;;
52542;SDS011;38449;52.696;6.186;2023-09-07T13:30:37;7.65;;;4.57;;
52542;SDS011;38449;52.696;6.186;2023-09-07T13:33:09;5.32;;;4.47;;
52542;SDS011;38449;52.696;6.186;2023-09-07T13:36:03;7.82;;;4.55;;
52542;SDS011;38449;52.696;6.186;2023-09-07T13:38:35;5.30;;;4.47;;
52542;SDS011;38449;52.696;6.186;2023-09-07T13:41:29;5.57;;;3.72;;
52542;SDS011;38449;52.696;6.186;2023-09-07T13:44:01;5.05;;;4.00;;
52542;SDS011;38449;52.696;6.186;2023-09-07T13:46:55;6.03;;;4.15;;
52542;SDS011;38449;52.696;6.186;2023-09-07T13:49:27;5.13;;;3.78;;
52542;SDS011;38449;52.696;6.186;2023-09-07T13:52:21;5.43;;;4.57;;
52542;SDS011;38449;52.696;6.186;2023-09-07T13:54:53;5.93;;;4.20;;
52542;SDS011;38449;52.696;6.186;2023-09-07T13:57:47;5.43;;;4.10;;
52542;SDS011;38449;52.696;6.186;2023-09-07T14:00:19;5.40;;;4.43;;
52542;SDS011;38449;52.696;6.186;2023-09-07T14:03:13;5.75;;;3.95;;
52542;SDS011;38449;52.696;6.186;2023-09-07T14:05:45;8.30;;;4.32;;
52542;SDS011;38449;52.696;6.186;2023-09-07T14:08:39;5.75;;;4.38;;
52542;SDS011;38449;52.696;6.186;2023-09-07T14:11:11;6.47;;;4.35;;
52542;SDS011;38449;52.696;6.186;2023-09-07T14:14:05;6.25;;;4.65;;
52542;SDS011;38449;52.696;6.186;2023-09-07T14:16:38;7.13;;;4.85;;
52542;SDS011;38449;52.696;6.186;2023-09-07T14:19:32;5.53;;;4.35;;
52542;SDS011;38449;52.696;6.186;2023-09-07T14:22:25;5.10;;;4.10;;
52542;SDS011;38449;52.696;6.186;2023-09-07T14:24:57;7.05;;;4.15;;
52542;SDS011;38449;52.696;6.186;2023-09-07T14:27:51;15.05;;;5.45;;
52542;SDS011;38449;52.696;6.186;2023-09-07T14:30:24;6.70;;;4.90;;
52542;SDS011;38449;52.696;6.186;2023-09-07T14:33:18;12.57;;;5.13;;
52542;SDS011;38449;52.696;6.186;2023-09-07T14:35:51;7.32;;;3.90;;
52542;SDS011;38449;52.696;6.186;2023-09-07T14:38:44;4.88;;;4.13;;
52542;SDS011;38449;52.696;6.186;2023-09-07T14:41:16;8.77;;;4.57;;
52542;SDS011;38449;52.696;6.186;2023-09-07T14:44:10;5.30;;;4.30;;
52542;SDS011;38449;52.696;6.186;2023-09-07T14:46:42;4.93;;;4.43;;
52542;SDS011;38449;52.696;6.186;2023-09-07T14:49:37;4.93;;;4.18;;
52542;SDS011;38449;52.696;6.186;2023-09-07T14:52:30;7.70;;;4.57;;
52542;SDS011;38449;52.696;6.186;2023-09-07T14:55:04;4.95;;;4.18;;
52542;SDS011;38449;52.696;6.186;2023-09-07T14:57:57;6.93;;;4.35;;
52542;SDS011;38449;52.696;6.186;2023-09-07T15:00:29;5.68;;;4.63;;
52542;SDS011;38449;52.696;6.186;2023-09-07T15:03:23;4.60;;;3.97;;
52542;SDS011;38449;52.696;6.186;2023-09-07T15:05:56;6.25;;;4.60;;
52542;SDS011;38449;52.696;6.186;2023-09-07T15:08:49;8.02;;;4.10;;
52542;SDS011;38449;52.696;6.186;2023-09-07T15:11:22;6.65;;;4.28;;
52542;SDS011;38449;52.696;6.186;2023-09-07T15:14:16;5.28;;;4.47;;
52542;SDS011;38449;52.696;6.186;2023-09-07T15:16:48;4.40;;;4.00;;
52542;SDS011;38449;52.696;6.186;2023-09-07T15:19:42;5.85;;;4.50;;
52542;SDS011;38449;52.696;6.186;2023-09-07T15:22:14;6.32;;;3.90;;
52542;SDS011;38449;52.696;6.186;2023-09-07T15:25:08;5.95;;;4.88;;
52542;SDS011;38449;52.696;6.186;2023-09-07T15:27:43;7.15;;;4.50;;
52542;SDS011;38449;52.696;6.186;2023-09-07T15:30:36;7.15;;;4.90;;
52542;SDS011;38449;52.696;6.186;2023-09-07T15:33:08;5.93;;;4.93;;
52542;SDS011;38449;52.696;6.186;2023-09-07T15:36:02;5.88;;;4.20;;
52542;SDS011;38449;52.696;6.186;2023-09-07T15:38:35;6.07;;;4.22;;
52542;SDS011;38449;52.696;6.186;2023-09-07T15:41:28;6.60;;;4.47;;
52542;SDS011;38449;52.696;6.186;2023-09-07T15:44:00;5.35;;;4.53;;
52542;SDS011;38449;52.696;6.186;2023-09-07T15:46:57;5.93;;;4.50;;
52542;SDS011;38449;52.696;6.186;2023-09-07T15:49:30;6.28;;;4.28;;
52542;SDS011;38449;52.696;6.186;2023-09-07T15:52:23;5.40;;;4.25;;
52542;SDS011;38449;52.696;6.186;2023-09-07T15:54:56;4.93;;;4.32;;
52542;SDS011;38449;52.696;6.186;2023-09-07T15:57:53;5.63;;;4.82;;
52542;SDS011;38449;52.696;6.186;2023-09-07T16:00:31;6.80;;;4.57;;
52542;SDS011;38449;52.696;6.186;2023-09-07T16:03:24;7.38;;;4.90;;
52542;SDS011;38449;52.696;6.186;2023-09-07T16:05:57;5.70;;;4.47;;
52542;SDS011;38449;52.696;6.186;2023-09-07T16:08:50;6.30;;;4.38;;
52542;SDS011;38449;52.696;6.186;2023-09-07T16:11:23;5.10;;;4.60;;
52542;SDS011;38449;52.696;6.186;2023-09-07T16:14:16;6.45;;;4.75;;
52542;SDS011;38449;52.696;6.186;2023-09-07T16:16:49;6.10;;;4.40;;
52542;SDS011;38449;52.696;6.186;2023-09-07T16:19:42;5.38;;;4.30;;
52542;SDS011;38449;52.696;6.186;2023-09-07T16:22:15;5.93;;;4.50;;
52542;SDS011;38449;52.696;6.186;2023-09-07T16:25:08;6.30;;;4.32;;
52542;SDS011;38449;52.696;6.186;2023-09-07T16:27:41;7.70;;;4.65;;